createdAt,value
2019-05-17T00:02:57.116Z,0
2019-05-17T00:03:50.178Z,0
2019-05-17T00:04:38.165Z,0
2019-05-17T00:05:32.006Z,0
2019-05-17T00:06:23.899Z,0
2019-05-17T00:07:18.296Z,0
2019-05-17T00:08:10.771Z,0
2019-05-17T00:08:58.395Z,0
2019-05-17T00:16:50.318Z,0
2019-05-17T00:17:39.676Z,0
2019-05-17T00:18:36.989Z,0
2019-05-17T00:19:29.934Z,0
2019-05-17T00:20:23.246Z,0
2019-05-17T00:21:18.069Z,0
2019-05-17T00:24:00.097Z,0
2019-05-17T00:24:43.972Z,0
2019-05-17T00:25:30.925Z,0
2019-05-17T00:26:12.378Z,0
2019-05-17T00:26:58.584Z,0
2019-05-17T00:36:17.784Z,0
2019-05-17T00:36:58.205Z,0
2019-05-17T00:37:38.316Z,0
2019-05-17T00:38:20.564Z,0
2019-05-17T00:50:33.978Z,0
2019-05-17T00:51:24.143Z,0
2019-05-17T00:52:16.655Z,0
2019-05-17T00:53:12.323Z,0
2019-05-17T00:54:14.717Z,0
2019-05-17T01:10:59.923Z,0
2019-05-17T01:11:40.445Z,0
2019-05-17T01:12:27.110Z,0
2019-05-17T01:13:07.043Z,0
2019-05-17T01:15:16.716Z,0
2019-05-17T01:15:56.545Z,0
2019-05-17T01:16:38.218Z,0
2019-05-17T01:20:47.418Z,0
2019-05-17T01:21:26.393Z,0
2019-05-17T01:22:07.753Z,0
2019-05-17T01:24:13.306Z,0
2019-05-17T01:24:53.794Z,0
2019-05-17T01:25:34.165Z,0
2019-05-17T01:26:18.381Z,0
2019-05-17T01:32:22.523Z,0
2019-05-17T01:33:02.969Z,0
2019-05-17T01:33:43.307Z,0
2019-05-17T01:34:27.059Z,0
2019-05-17T01:35:07.105Z,0
2019-05-17T01:35:46.579Z,0
2019-05-17T01:36:26.318Z,0
2019-05-17T01:37:06.546Z,0
2019-05-17T01:37:47.414Z,0
2019-05-17T01:38:37.609Z,0
2019-05-17T01:39:22.462Z,0
2019-05-17T01:43:08.200Z,0
2019-05-17T01:53:10.099Z,0
2019-05-17T01:53:53.784Z,0
2019-05-17T01:54:36.894Z,0
2019-05-17T01:55:21.607Z,0
2019-05-17T01:56:06.321Z,0
2019-05-17T01:56:46.287Z,0
2019-05-17T01:57:27.389Z,0
2019-05-17T01:58:08.805Z,0
2019-05-17T01:58:48.908Z,0
2019-05-17T01:59:29.426Z,0
2019-05-17T02:00:57.138Z,0
2019-05-17T02:01:39.020Z,0
2019-05-17T02:02:19.529Z,0
2019-05-17T02:03:03.688Z,0
2019-05-17T02:14:23.115Z,0
2019-05-17T02:15:16.528Z,0
2019-05-17T02:16:07.128Z,0
2019-05-17T02:28:06.007Z,0
2019-05-17T02:28:46.283Z,0
2019-05-17T02:29:26.705Z,0
2019-05-17T02:30:13.502Z,0
2019-05-17T02:34:18.373Z,0
2019-05-17T02:35:03.219Z,0
2019-05-17T02:46:07.398Z,0
2019-05-17T02:46:49.374Z,0
2019-05-17T02:47:33.566Z,0
2019-05-17T02:48:13.473Z,0
2019-05-17T02:49:38.495Z,0
2019-05-17T02:50:19.690Z,0
2019-05-17T02:51:03.383Z,0
2019-05-17T02:51:46.358Z,0
2019-05-17T02:53:13.176Z,0
2019-05-17T02:55:23.236Z,0
2019-05-17T02:56:03.164Z,0
2019-05-17T02:56:43.489Z,0
2019-05-17T02:57:23.517Z,0
2019-05-17T02:59:32.997Z,0
2019-05-17T03:00:13.146Z,0
2019-05-17T03:00:53.171Z,0
2019-05-17T03:01:33.107Z,0
2019-05-17T03:02:12.888Z,0
2019-05-17T03:12:57.666Z,0
2019-05-17T03:13:38.094Z,0
2019-05-17T03:14:18.523Z,0
2019-05-17T03:14:58.889Z,0
2019-05-17T03:15:39.271Z,0
2019-05-17T03:16:25.230Z,0
2019-05-17T05:09:56.573Z,200
2019-05-17T05:10:38.523Z,212
2019-05-17T05:11:18.203Z,212
2019-05-17T05:12:02.329Z,208
2019-05-17T05:12:43.394Z,212
2019-05-17T05:15:26.770Z,236
2019-05-17T05:16:07.202Z,236
2019-05-17T05:16:47.535Z,240
2019-05-17T05:17:27.887Z,252
2019-05-17T05:18:08.290Z,256
2019-05-17T05:18:48.887Z,260
2019-05-17T05:19:32.884Z,276
2019-05-17T05:24:56.791Z,296
2019-05-17T05:25:38.947Z,316
2019-05-17T05:26:59.826Z,344
2019-05-17T05:35:28.292Z,268
2019-05-17T05:36:07.871Z,268
2019-05-17T05:36:49.268Z,264
2019-05-17T05:37:33.102Z,272
2019-05-17T05:40:17.147Z,320
2019-05-17T05:41:01.584Z,328
2019-05-17T05:46:26.628Z,380
2019-05-17T05:47:07.074Z,372
2019-05-17T05:47:47.400Z,388
2019-05-17T05:48:28.006Z,400
2019-05-17T05:49:08.616Z,408
2019-05-17T05:49:52.004Z,420
2019-05-17T05:51:56.020Z,500
2019-05-17T05:52:41.887Z,520
2019-05-17T05:53:21.796Z,532
2019-05-17T05:54:01.580Z,544
2019-05-17T05:54:41.294Z,552
2019-05-17T05:55:23.320Z,564
2019-05-17T05:58:06.932Z,560
2019-05-17T05:58:47.465Z,560
2019-05-17T05:59:27.772Z,528
2019-05-17T06:00:12.451Z,568
2019-05-17T06:00:52.892Z,568
2019-05-17T06:01:32.545Z,564
2019-05-17T06:03:08.740Z,596
2019-05-17T06:03:49.380Z,576
2019-05-17T06:04:31.797Z,576
2019-05-17T06:08:23.851Z,568
2019-05-17T06:09:04.160Z,540
2019-05-17T06:09:46.462Z,532
2019-05-17T06:10:26.950Z,528
2019-05-17T06:11:07.321Z,512
2019-05-17T06:11:47.810Z,496
2019-05-17T06:12:28.731Z,508
2019-05-17T06:16:35.466Z,612
2019-05-17T06:17:15.856Z,588
2019-05-17T06:17:56.273Z,580
2019-05-17T06:18:36.679Z,608
2019-05-17T06:19:17.135Z,612
2019-05-17T06:19:57.527Z,616
2019-05-17T06:20:37.962Z,592
2019-05-17T06:21:18.343Z,544
2019-05-17T06:21:58.772Z,524
2019-05-17T06:22:39.161Z,532
2019-05-17T06:26:53.052Z,688
2019-05-17T06:28:52.732Z,720
2019-05-17T06:29:33.058Z,624
2019-05-17T06:30:13.476Z,544
2019-05-17T06:30:54.934Z,552
2019-05-17T06:31:38.236Z,632
2019-05-17T06:32:22.524Z,664
2019-05-17T06:33:02.338Z,624
2019-05-17T06:39:13.957Z,600
2019-05-17T06:39:54.337Z,644
2019-05-17T06:40:34.738Z,684
2019-05-17T06:41:15.867Z,684
2019-05-17T06:41:56.333Z,732
2019-05-17T06:42:41.047Z,712
2019-05-17T06:43:17.127Z,760
2019-05-17T06:45:17.763Z,780
2019-05-17T06:45:58.189Z,784
2019-05-17T06:46:38.866Z,812
2019-05-17T06:47:19.022Z,820
2019-05-17T06:47:59.465Z,836
2019-05-17T06:48:42.153Z,852
2019-05-17T06:49:22.248Z,848
2019-05-17T06:50:03.037Z,808
2019-05-17T06:50:42.818Z,776
2019-05-17T06:54:05.947Z,744
2019-05-17T06:54:46.473Z,696
2019-05-17T06:55:31.121Z,648
2019-05-17T07:00:20.451Z,652
2019-05-17T07:00:56.166Z,680
2019-05-17T07:01:36.504Z,668
2019-05-17T07:02:19.723Z,628
2019-05-17T07:03:00.663Z,592
2019-05-17T07:03:40.002Z,556
2019-05-17T07:04:22.003Z,616
2019-05-17T07:06:26.655Z,560
2019-05-17T07:07:10.749Z,564
2019-05-17T07:07:51.412Z,580
2019-05-17T07:10:39.603Z,652
2019-05-17T07:11:59.597Z,724
2019-05-17T07:12:53.996Z,728
2019-05-17T07:13:22.326Z,696
2019-05-17T07:16:44.318Z,664
2019-05-17T07:17:25.903Z,652
2019-05-17T07:18:10.016Z,632
2019-05-17T07:18:49.361Z,616
2019-05-17T07:20:13.428Z,604
2019-05-17T07:20:55.748Z,584
2019-05-17T07:21:36.416Z,604
2019-05-17T07:22:16.696Z,640
2019-05-17T07:22:57.519Z,700
2019-05-17T07:23:39.631Z,688
2019-05-17T07:26:22.523Z,708
2019-05-17T07:27:02.740Z,732
2019-05-17T07:27:45.798Z,720
2019-05-17T07:28:25.224Z,680
2019-05-17T07:29:06.430Z,636
2019-05-17T07:29:47.093Z,596
2019-05-17T07:34:35.078Z,636
2019-05-17T07:35:15.463Z,544
2019-05-17T07:35:59.473Z,516
2019-05-17T07:39:23.984Z,728
2019-05-17T07:40:06.419Z,780
2019-05-17T07:40:45.431Z,792
2019-05-17T07:41:25.909Z,792
2019-05-17T07:42:06.240Z,800
2019-05-17T07:42:46.635Z,808
2019-05-17T07:43:27.125Z,812
2019-05-17T07:44:09.768Z,824
2019-05-17T07:48:54.549Z,864
2019-05-17T07:49:34.938Z,880
2019-05-17T07:50:15.534Z,892
2019-05-17T07:50:56.262Z,896
2019-05-17T07:54:21.035Z,776
2019-05-17T07:55:04.145Z,844
2019-05-17T07:55:43.745Z,820
2019-05-17T07:56:24.221Z,784
2019-05-17T07:57:04.746Z,776
2019-05-17T08:01:11.406Z,628
2019-05-17T08:01:53.791Z,620
2019-05-17T08:02:34.024Z,568
2019-05-17T08:03:14.865Z,576
2019-05-17T08:06:00.514Z,576
2019-05-17T08:06:42.308Z,604
2019-05-17T08:07:22.649Z,624
2019-05-17T08:08:03.053Z,636
2019-05-17T08:08:43.419Z,664
2019-05-17T08:09:23.922Z,696
2019-05-17T08:10:04.400Z,728
2019-05-17T08:10:46.847Z,752
2019-05-17T08:14:10.497Z,684
2019-05-17T08:14:50.461Z,676
2019-05-17T08:15:30.717Z,684
2019-05-17T08:16:11.096Z,692
2019-05-17T08:16:51.943Z,684
2019-05-17T08:17:32.661Z,676
2019-05-17T08:18:12.806Z,696
2019-05-17T08:18:53.231Z,708
2019-05-17T08:19:33.621Z,728
2019-05-17T08:20:14.032Z,744
2019-05-17T08:20:55.374Z,760
2019-05-17T08:26:20.013Z,776
2019-05-17T08:27:00.894Z,776
2019-05-17T08:27:40.842Z,780
2019-05-17T08:28:21.537Z,792
2019-05-17T08:29:01.306Z,784
2019-05-17T08:29:41.811Z,736
2019-05-17T08:30:22.639Z,700
2019-05-17T08:31:05.152Z,688
2019-05-17T08:33:49.869Z,736
2019-05-17T08:34:29.989Z,720
2019-05-17T08:35:11.134Z,728
2019-05-17T08:35:50.920Z,752
2019-05-17T08:36:32.284Z,760
2019-05-17T08:37:12.647Z,700
2019-05-17T08:38:33.486Z,628
2019-05-17T08:42:01.299Z,664
2019-05-17T08:42:42.205Z,628
2019-05-17T08:43:38.143Z,636
2019-05-17T08:50:11.166Z,692
2019-05-17T08:50:52.588Z,624
2019-05-17T08:51:33.147Z,616
2019-05-17T08:54:03.741Z,724
2019-05-17T08:54:44.253Z,780
2019-05-17T08:55:26.505Z,824
2019-05-17T08:56:06.964Z,840
2019-05-17T08:59:33.626Z,808
2019-05-17T09:00:16.904Z,1008
2019-05-17T09:03:41.392Z,1192
2019-05-17T09:04:24.993Z,1200
2019-05-17T09:05:46.502Z,1108
2019-05-17T09:06:29.279Z,1032
2019-05-17T09:07:09.495Z,976
2019-05-17T09:07:53.128Z,932
2019-05-17T09:08:33.471Z,880
2019-05-17T09:09:14.988Z,844
2019-05-17T09:11:21.413Z,1008
2019-05-17T09:12:02.175Z,1152
2019-05-17T09:12:45.412Z,1100
2019-05-17T09:15:32.591Z,920
2019-05-17T09:16:15.515Z,988
2019-05-17T09:17:00.365Z,944
2019-05-17T09:18:22.948Z,860
2019-05-17T09:19:06.042Z,844
2019-05-17T09:19:53.890Z,900
2019-05-17T09:20:32.578Z,1008
2019-05-17T09:21:13.530Z,1024
2019-05-17T09:21:53.928Z,1012
2019-05-17T09:22:39.558Z,1072
2019-05-17T09:25:22.207Z,1160
2019-05-17T09:26:02.442Z,1140
2019-05-17T09:27:01.545Z,1136
2019-05-17T09:27:42.274Z,1124
2019-05-17T09:28:22.602Z,1168
2019-05-17T09:29:05.703Z,1184
2019-05-17T09:30:33.697Z,1152
2019-05-17T09:31:16.622Z,1172
2019-05-17T09:33:24.474Z,1232
2019-05-17T09:34:06.277Z,1256
2019-05-17T09:34:52.079Z,1192
2019-05-17T09:35:33.727Z,1164
2019-05-17T09:36:16.252Z,1116
2019-05-17T09:38:21.450Z,964
2019-05-17T09:39:01.921Z,944
2019-05-17T09:39:42.384Z,988
2019-05-17T09:40:22.984Z,1072
2019-05-17T09:41:03.578Z,1068
2019-05-17T09:41:46.009Z,1080
2019-05-17T09:45:11.601Z,1032
2019-05-17T09:45:52.167Z,1072
2019-05-17T09:46:32.763Z,1072
2019-05-17T09:47:15.199Z,1088
2019-05-17T09:47:55.764Z,1092
2019-05-17T09:51:21.724Z,1168
2019-05-17T09:52:03.981Z,1156
2019-05-17T09:52:46.288Z,1156
2019-05-17T09:56:11.562Z,1052
2019-05-17T09:56:52.227Z,1004
2019-05-17T09:57:49.578Z,1032
2019-05-17T09:58:30.096Z,976
2019-05-17T09:59:51.764Z,1008
2019-05-17T10:00:35.555Z,1248
2019-05-17T10:01:21.733Z,1320
2019-05-17T10:02:03.245Z,1280
2019-05-17T10:02:51.032Z,1232
2019-05-17T10:03:50.521Z,1248
2019-05-17T10:04:39.383Z,1220
2019-05-17T10:05:20.239Z,1096
2019-05-17T10:06:04.466Z,952
2019-05-17T10:06:51.565Z,912
2019-05-17T10:07:33.642Z,876
2019-05-17T10:08:15.989Z,864
2019-05-17T10:13:33.271Z,948
2019-05-17T10:14:25.664Z,952
2019-05-17T10:15:00.283Z,956
2019-05-17T10:15:40.784Z,956
2019-05-17T10:17:03.956Z,996
2019-05-17T10:17:46.307Z,980
2019-05-17T10:18:29.429Z,956
2019-05-17T10:19:09.555Z,920
2019-05-17T10:19:50.720Z,856
2019-05-17T10:23:14.471Z,876
2019-05-17T10:23:54.788Z,860
2019-05-17T10:24:39.509Z,996
2019-05-17T10:25:17.328Z,1096
2019-05-17T10:25:59.506Z,1068
2019-05-17T10:26:39.519Z,1028
2019-05-17T10:28:44.433Z,1220
2019-05-17T10:29:24.831Z,1208
2019-05-17T11:07:56.453Z,1684
2019-05-17T11:08:36.651Z,1720
2019-05-17T11:09:20.162Z,1696
2019-05-17T11:10:01.784Z,1644
2019-05-17T11:14:06.864Z,1468
2019-05-17T11:14:52.458Z,1568
2019-05-17T11:15:27.709Z,1716
2019-05-17T11:20:16.515Z,1652
2019-05-17T11:20:58.747Z,1708
2019-05-17T11:21:46.535Z,1792
2019-05-17T11:22:27.861Z,1800
2019-05-17T11:23:11.301Z,1728
2019-05-17T11:24:49.358Z,1828
2019-05-17T11:25:29.831Z,1868
2019-05-17T11:26:11.089Z,2000
2019-05-17T11:30:16.412Z,1884
2019-05-17T11:30:56.864Z,1876
2019-05-17T11:31:39.041Z,1872
2019-05-17T11:32:19.498Z,1860
2019-05-17T11:32:59.866Z,1824
2019-05-17T11:33:40.818Z,1700
2019-05-17T11:37:02.831Z,1368
2019-05-17T11:37:43.278Z,1300
2019-05-17T11:38:27.512Z,1228
2019-05-17T11:39:09.485Z,1132
2019-05-17T11:43:13.871Z,1080
2019-05-17T11:43:57.979Z,1092
2019-05-17T11:50:00.874Z,1148
2019-05-17T11:50:40.953Z,1156
2019-05-17T11:51:21.731Z,1148
2019-05-17T11:52:02.072Z,1160
2019-05-17T11:55:25.909Z,1300
2019-05-17T11:56:07.113Z,1304
2019-05-17T11:56:48.189Z,1308
2019-05-17T11:57:28.577Z,1292
2019-05-17T11:58:09.920Z,1272
2019-05-17T11:58:50.281Z,1256
2019-05-17T12:07:35.369Z,964
2019-05-17T12:08:17.489Z,948
2019-05-17T12:08:57.868Z,960
2019-05-17T12:09:38.222Z,960
2019-05-17T12:10:18.631Z,976
2019-05-17T12:10:59.087Z,988
2019-05-17T12:11:39.404Z,996
2019-05-17T12:12:19.809Z,976
2019-05-17T12:13:01.163Z,972
2019-05-17T12:17:05.357Z,1016
2019-05-17T12:17:47.510Z,1040
2019-05-17T12:22:18.882Z,940
2019-05-17T12:23:23.891Z,856
2019-05-17T12:25:37.467Z,856
2019-05-17T12:26:38.473Z,896
2019-05-17T12:27:39.451Z,952
2019-05-17T12:28:37.053Z,960
2019-05-17T12:29:32.693Z,956
2019-05-17T12:30:30.534Z,968
2019-05-17T12:31:31.767Z,960
2019-05-17T12:32:28.329Z,964
2019-05-17T12:33:33.456Z,968
2019-05-17T12:34:31.095Z,968
2019-05-17T12:35:45.968Z,968
2019-05-17T12:45:00.385Z,1424
2019-05-17T12:45:40.928Z,1480
2019-05-17T12:46:21.573Z,1556
2019-05-17T12:47:01.965Z,1652
2019-05-17T12:47:42.585Z,1792
2019-05-17T12:48:22.803Z,1928
2019-05-17T12:49:03.167Z,2048
2019-05-17T12:49:43.665Z,2136
2019-05-17T12:53:13.882Z,2172
2019-05-17T12:54:08.664Z,2152
2019-05-17T12:55:01.884Z,2124
2019-05-17T12:55:58.042Z,2104
2019-05-17T12:56:55.072Z,2076
2019-05-17T12:57:48.129Z,2048
2019-05-17T12:58:40.673Z,2028
2019-05-17T12:59:44.532Z,2028
2019-05-17T13:00:42.496Z,2044
2019-05-17T13:09:54.158Z,2224
2019-05-17T13:10:33.254Z,2236
2019-05-17T13:11:13.645Z,2248
2019-05-17T13:11:53.900Z,2244
2019-05-17T13:12:34.360Z,2216
2019-05-17T13:13:14.705Z,2184
2019-05-17T13:13:55.348Z,2144
2019-05-17T13:16:15.375Z,2124
2019-05-17T13:16:41.264Z,2124
2019-05-17T13:17:21.710Z,2148
2019-05-17T13:18:02.270Z,2172
2019-05-17T13:18:42.898Z,2192
2019-05-17T13:19:25.334Z,2220
2019-05-17T13:20:03.866Z,2224
2019-05-17T13:20:44.128Z,2220
2019-05-17T13:21:24.514Z,2208
2019-05-17T13:22:46.198Z,2196
2019-05-17T13:26:12.735Z,2088
2019-05-17T13:26:52.971Z,2064
2019-05-17T13:27:33.343Z,2032
2019-05-17T13:28:15.644Z,1984
2019-05-17T13:34:20.893Z,2240
2019-05-17T13:35:01.310Z,2260
2019-05-17T13:35:43.647Z,2264
2019-05-17T13:36:24.090Z,2244
2019-05-17T13:37:04.468Z,2208
2019-05-17T13:37:44.804Z,2172
2019-05-17T13:38:25.245Z,2140
2019-05-17T13:44:30.613Z,1920
2019-05-17T13:45:11.068Z,1908
2019-05-17T13:45:51.396Z,1916
2019-05-17T13:46:33.392Z,1920
2019-05-17T13:47:12.360Z,1904
2019-05-17T13:47:52.786Z,1876
2019-05-17T13:48:33.145Z,1848
2019-05-17T13:49:13.520Z,1828
2019-05-17T13:49:53.913Z,1808
2019-05-17T13:50:35.249Z,1772
2019-05-17T13:56:40.922Z,1652
2019-05-17T13:57:22.269Z,1684
2019-05-17T13:58:03.101Z,1716
2019-05-17T13:58:43.913Z,1744
2019-05-17T13:59:25.304Z,1756
2019-05-17T14:04:50.327Z,1664
2019-05-17T14:05:30.717Z,1692
2019-05-17T14:06:11.095Z,1708
2019-05-17T14:06:51.694Z,1712
2019-05-17T14:07:32.099Z,1720
2019-05-17T14:08:12.529Z,1724
2019-05-17T14:08:52.910Z,1724
2019-05-17T14:09:33.347Z,1716
2019-05-17T14:10:26.039Z,1712
2019-05-17T14:10:55.785Z,1712
2019-05-17T14:15:00.271Z,1740
2019-05-17T14:15:40.667Z,1744
2019-05-17T14:16:21.064Z,1740
2019-05-17T14:17:01.610Z,1736
2019-05-17T14:17:42.149Z,1724
2019-05-17T14:18:22.560Z,1724
2019-05-17T14:19:03.039Z,1736
2019-05-17T14:19:43.480Z,1760
2019-05-17T14:20:26.812Z,1772
2019-05-17T14:23:10.725Z,1760
2019-05-17T14:23:52.629Z,1752
2019-05-17T14:24:33.142Z,1740
2019-05-17T14:25:13.479Z,1724
2019-05-17T14:25:53.916Z,1720
2019-05-17T14:26:34.326Z,1716
2019-05-17T14:27:14.762Z,1712
2019-05-17T14:27:55.153Z,1712
2019-05-17T14:30:00.511Z,1716
2019-05-17T14:30:40.833Z,1720
2019-05-17T14:31:21.230Z,1716
2019-05-17T14:32:01.647Z,1696
2019-05-17T14:32:42.196Z,1684
2019-05-17T14:33:22.581Z,1688
2019-05-17T14:34:03.029Z,1696
2019-05-17T14:35:23.732Z,1680
2019-05-17T14:36:04.109Z,1672
2019-05-17T14:36:44.574Z,1676
2019-05-17T14:37:24.954Z,1676
2019-05-17T14:38:05.306Z,1668
2019-05-17T14:43:31.719Z,1624
2019-05-17T14:44:10.625Z,1620
2019-05-17T14:44:51.360Z,1620
2019-05-17T14:45:31.810Z,1608
2019-05-17T14:46:12.184Z,1600
2019-05-17T14:46:52.736Z,1608
2019-05-17T14:49:40.241Z,1636
2019-05-17T14:50:23.629Z,1628
2019-05-17T14:51:03.339Z,1632
2019-05-17T14:51:43.689Z,1628
2019-05-17T14:52:24.096Z,1624
2019-05-17T14:53:04.622Z,1616
2019-05-17T14:53:44.930Z,1608
2019-05-17T14:54:25.325Z,1600
2019-05-17T14:57:54.006Z,1556
2019-05-17T14:58:34.374Z,1548
2019-05-17T14:59:15.150Z,1540
2019-05-17T14:59:55.506Z,1532
2019-05-17T15:04:40.799Z,1488
2019-05-17T15:05:22.047Z,1488
2019-05-17T15:06:02.583Z,1492
2019-05-17T15:06:42.990Z,1500
2019-05-17T15:07:23.372Z,1504
2019-05-17T15:08:03.839Z,1504
2019-05-17T15:08:44.215Z,1508
2019-05-17T15:09:26.684Z,1504
2019-05-17T15:12:51.645Z,1460
2019-05-17T15:13:32.083Z,1456
2019-05-17T15:14:12.597Z,1452
2019-05-17T15:15:33.379Z,1452
2019-05-17T15:16:13.743Z,1452
2019-05-17T15:16:54.468Z,1448
2019-05-17T15:19:44.509Z,1408
2019-05-17T15:20:24.970Z,1388
2019-05-17T15:21:05.342Z,1376
2019-05-17T15:23:51.066Z,1308
2019-05-17T15:24:31.402Z,1292
2019-05-17T15:25:11.787Z,1276
2019-05-17T15:25:52.207Z,1272
2019-05-17T15:26:35.499Z,1280
2019-05-17T15:29:10.238Z,1292
2019-05-17T15:29:47.845Z,1280
2019-05-17T15:30:28.256Z,1272
2019-05-17T15:31:08.657Z,1264
2019-05-17T15:31:52.879Z,1252
2019-05-17T15:35:56.920Z,1160
2019-05-17T15:36:36.840Z,1136
2019-05-17T15:37:17.277Z,1104
2019-05-17T15:37:57.669Z,1060
2019-05-17T15:38:38.269Z,1016
2019-05-17T15:39:18.626Z,964
2019-05-17T15:39:58.975Z,932
2019-05-17T15:40:39.375Z,904
2019-05-17T15:41:19.756Z,880
2019-05-17T15:42:00.107Z,856
2019-05-17T15:42:43.912Z,828
2019-05-17T15:48:06.583Z,660
2019-05-17T15:48:46.904Z,640
2019-05-17T15:49:27.313Z,616
2019-05-17T15:50:07.748Z,596
2019-05-17T15:50:48.124Z,576
2019-05-17T15:51:28.482Z,568
2019-05-17T15:52:08.919Z,556
2019-05-17T15:52:49.553Z,544
2019-05-17T15:53:30.481Z,536
2019-05-17T15:54:12.630Z,524
2019-05-17T16:00:16.300Z,460
2019-05-17T16:00:56.660Z,456
2019-05-17T16:01:38.861Z,456
2019-05-17T16:02:19.242Z,452
2019-05-17T16:02:59.931Z,456
2019-05-17T16:03:40.214Z,460
2019-05-17T16:04:20.792Z,464
2019-05-17T16:05:01.210Z,468
2019-05-17T16:13:46.419Z,556
2019-05-17T16:14:26.833Z,552
2019-05-17T16:15:07.231Z,552
2019-05-17T16:15:47.627Z,560
2019-05-17T16:16:28.024Z,568
2019-05-17T16:17:08.407Z,568
2019-05-17T16:17:48.710Z,568
2019-05-17T16:18:29.147Z,568
2019-05-17T16:19:09.612Z,576
2019-05-17T16:19:49.963Z,584
2019-05-17T16:20:30.366Z,588
2019-05-17T16:21:10.747Z,588
2019-05-17T16:21:51.225Z,584
2019-05-17T16:29:16.550Z,512
2019-05-17T16:29:56.933Z,500
2019-05-17T16:30:38.897Z,488
2019-05-17T17:09:06.425Z,296
2019-05-17T17:09:46.672Z,288
2019-05-17T17:10:30.103Z,280
2019-05-17T17:11:12.040Z,276
2019-05-17T17:11:52.505Z,280
2019-05-17T17:12:32.828Z,284
2019-05-17T17:13:13.225Z,288
2019-05-17T17:13:53.649Z,288
2019-05-17T17:14:34.979Z,284
2019-05-17T17:15:15.391Z,280
2019-05-17T17:15:55.811Z,276
2019-05-17T17:16:36.199Z,272
2019-05-17T17:17:16.565Z,264
2019-05-17T17:17:56.921Z,260
2019-05-17T17:18:37.315Z,260
2019-05-17T17:23:22.847Z,248
2019-05-17T17:24:03.204Z,244
2019-05-17T17:24:53.683Z,244
2019-05-17T17:25:34.053Z,236
2019-05-17T17:26:14.475Z,232
2019-05-17T17:26:54.814Z,232
2019-05-17T17:27:35.241Z,228
2019-05-17T17:28:15.668Z,224
2019-05-17T17:28:56.968Z,224
2019-05-17T17:29:37.427Z,224
2019-05-17T17:30:17.858Z,220
2019-05-17T17:37:42.710Z,220
2019-05-17T17:38:23.096Z,220
2019-05-17T17:39:03.514Z,220
2019-05-17T17:39:44.141Z,220
2019-05-17T17:40:24.501Z,216
2019-05-17T17:41:04.830Z,216
2019-05-17T17:41:45.224Z,212
2019-05-17T17:42:27.118Z,212
2019-05-17T17:43:07.525Z,208
2019-05-17T17:51:52.817Z,176
2019-05-17T17:52:34.948Z,168
2019-05-17T17:53:13.553Z,168
2019-05-17T17:53:53.975Z,160
2019-05-17T17:54:34.329Z,156
2019-05-17T17:55:14.717Z,152
2019-05-17T17:55:57.142Z,148
2019-05-17T17:56:37.517Z,144
2019-05-17T18:04:42.797Z,108
2019-05-17T18:05:25.108Z,104
2019-05-17T18:06:03.589Z,104
2019-05-17T18:06:43.983Z,104
2019-05-17T18:07:24.375Z,104
2019-05-17T18:08:04.726Z,100
2019-05-17T18:08:45.125Z,100
2019-05-17T18:09:25.558Z,100
2019-05-17T18:10:05.962Z,100
2019-05-17T18:10:46.717Z,96
2019-05-17T18:11:26.893Z,96
2019-05-17T18:12:07.392Z,92
2019-05-17T18:12:47.717Z,88
2019-05-17T18:17:38.913Z,84
2019-05-17T18:18:13.490Z,84
2019-05-17T18:18:53.921Z,84
2019-05-17T18:19:34.280Z,80
2019-05-17T18:20:14.700Z,80
2019-05-17T18:20:55.093Z,80
2019-05-17T18:21:39.621Z,76
2019-05-17T18:26:22.866Z,68
2019-05-17T18:27:03.303Z,64
2019-05-17T18:27:43.691Z,64
2019-05-17T18:28:24.216Z,60
2019-05-17T18:29:07.766Z,60
2019-05-17T18:29:45.004Z,64
2019-05-17T18:30:25.363Z,60
2019-05-17T18:31:05.821Z,60
2019-05-17T18:31:46.269Z,60
2019-05-17T18:32:26.681Z,60
2019-05-17T18:33:07.017Z,60
2019-05-17T18:33:47.422Z,56
2019-05-17T18:34:27.861Z,56
2019-05-17T18:40:28.061Z,40
2019-05-17T18:41:08.550Z,40
2019-05-17T18:41:48.968Z,40
2019-05-17T18:42:29.434Z,40
2019-05-17T18:43:09.923Z,36
2019-05-17T18:43:52.170Z,36
2019-05-17T18:44:33.139Z,36
2019-05-17T18:53:18.263Z,28
2019-05-17T18:53:58.726Z,24
2019-05-17T18:54:39.127Z,28
2019-05-17T18:55:19.473Z,24
2019-05-17T18:56:00.868Z,24
2019-05-17T18:56:41.243Z,20
2019-05-17T18:57:22.198Z,24
2019-05-17T18:58:02.600Z,20
2019-05-17T18:58:43.001Z,24
2019-05-17T19:07:28.197Z,16
2019-05-17T19:08:08.528Z,12
2019-05-17T19:08:48.956Z,12
2019-05-17T19:09:29.302Z,12
2019-05-17T19:10:09.703Z,16
2019-05-17T19:10:50.076Z,16
2019-05-17T19:11:30.542Z,16
2019-05-17T19:12:10.935Z,12
2019-05-17T19:12:53.188Z,12
2019-05-17T19:20:58.189Z,8
2019-05-17T19:21:38.602Z,8
2019-05-17T19:22:19.024Z,8
2019-05-17T19:23:00.424Z,4
2019-05-17T19:23:42.713Z,4
2019-05-17T19:24:23.141Z,4
2019-05-17T19:28:29.764Z,4
2019-05-17T19:29:11.913Z,4
2019-05-17T19:30:02.303Z,4
2019-05-17T19:30:42.721Z,4
2019-05-17T19:31:23.179Z,4
2019-05-17T19:36:13.878Z,4
2019-05-17T19:36:54.111Z,4
2019-05-17T19:37:39.127Z,0
2019-05-17T19:38:19.524Z,0
2019-05-17T19:38:59.931Z,0
2019-05-17T19:46:42.463Z,0
2019-05-17T19:47:22.760Z,0
2019-05-17T19:48:04.058Z,0
2019-05-17T19:48:44.469Z,0
2019-05-17T19:49:24.872Z,0
2019-05-17T19:50:05.288Z,0
2019-05-17T19:50:45.703Z,0
2019-05-17T19:51:29.772Z,0
2019-05-17T19:56:53.048Z,0
2019-05-17T19:57:33.468Z,0
2019-05-17T19:58:13.875Z,0
2019-05-17T19:58:54.277Z,0
2019-05-17T19:59:34.670Z,0
2019-05-17T20:00:15.040Z,0
2019-05-17T20:00:55.477Z,0
2019-05-17T20:01:35.874Z,0
2019-05-17T20:02:16.203Z,0
2019-05-17T20:02:56.681Z,0
2019-05-17T20:03:37.032Z,0
2019-05-17T20:04:17.454Z,0
2019-05-17T20:04:57.843Z,0
2019-05-17T20:13:43.153Z,0
2019-05-17T20:14:23.488Z,0
2019-05-17T20:15:16.491Z,0
2019-05-17T20:15:44.333Z,0
2019-05-17T20:16:24.718Z,0
2019-05-17T20:17:05.058Z,0
2019-05-17T20:18:25.828Z,0
2019-05-17T20:19:06.211Z,0
2019-05-17T20:19:47.573Z,0
2019-05-17T20:29:13.171Z,0
2019-05-17T20:29:53.566Z,0
2019-05-17T20:30:33.935Z,0
2019-05-17T20:31:14.317Z,0
2019-05-17T20:31:54.778Z,0
2019-05-17T20:32:35.182Z,0
2019-05-17T20:33:15.551Z,0
2019-05-17T20:33:55.915Z,0
2019-05-17T20:34:36.269Z,0
2019-05-17T20:35:17.983Z,0
2019-05-17T20:35:57.091Z,0
2019-05-17T20:36:37.440Z,0
2019-05-17T20:37:17.851Z,0
2019-05-17T20:44:43.071Z,0
2019-05-17T20:45:32.444Z,0
2019-05-17T20:46:03.818Z,0
2019-05-17T20:46:44.207Z,0
2019-05-17T20:49:18.891Z,0
2019-05-17T20:49:58.804Z,0
2019-05-17T20:50:39.208Z,0
2019-05-17T20:51:19.630Z,0
2019-05-17T20:52:00.019Z,0
2019-05-17T21:00:04.906Z,0
2019-05-17T21:00:45.226Z,0
2019-05-17T21:01:25.643Z,0
2019-05-17T21:02:06.059Z,0
2019-05-17T21:02:46.557Z,0
2019-05-17T21:03:27.098Z,0
2019-05-17T21:04:07.577Z,0
2019-05-17T21:04:47.890Z,0
2019-05-17T21:05:28.258Z,0
2019-05-17T21:06:08.648Z,0
2019-05-17T21:06:49.311Z,0
2019-05-17T21:07:29.579Z,0
2019-05-17T21:08:10.036Z,0
2019-05-17T21:16:15.345Z,0
2019-05-17T21:16:55.724Z,0
2019-05-17T21:17:36.089Z,0
2019-05-17T21:18:16.496Z,0
2019-05-17T21:18:56.955Z,0
2019-05-17T21:19:37.434Z,0
2019-05-17T21:20:17.834Z,0
2019-05-17T21:21:38.685Z,0
2019-05-17T21:22:18.993Z,0
2019-05-17T21:22:59.419Z,0
2019-05-17T21:25:37.207Z,0
2019-05-17T21:26:17.465Z,0
2019-05-17T21:26:57.868Z,0
2019-05-17T21:27:38.301Z,0
2019-05-17T21:28:18.651Z,0
2019-05-17T21:28:59.184Z,0
2019-05-17T21:29:39.739Z,0
2019-05-17T21:30:19.996Z,0
2019-05-17T21:31:00.397Z,0
2019-05-17T21:40:25.942Z,0
2019-05-17T21:41:06.371Z,0
2019-05-17T21:41:47.430Z,0
2019-05-17T21:42:27.785Z,0
2019-05-17T21:43:08.166Z,0
2019-05-17T21:43:48.547Z,0
2019-05-17T21:44:28.918Z,0
2019-05-17T21:45:09.333Z,0
2019-05-17T21:46:02.430Z,0
2019-05-17T21:46:30.142Z,0
2019-05-17T21:47:10.521Z,0
2019-05-17T21:47:50.947Z,0
2019-05-17T21:51:55.720Z,0
2019-05-17T21:52:36.123Z,0
2019-05-17T21:53:16.526Z,0
2019-05-17T21:53:56.924Z,0